Sinking Spring, Ohio
Current Conditions -  °F | °C
As of 11:34 AM on Monday 24 Nov 2014 (Local Time) from KRZT Reporting Station
Broken Clouds Broken Clouds  
Wind Chill: 63°   Ceiling: 5500
Heat Index: 63°   Visibility: 10mi
Dew Point: 43°   Wind: 26mph
Humidity: 48%   Direction: 220°SW
Pressure: 29.41"   Gusts: 43mph
Location:  39.07°N, 83.39°W
Report Text: KRZT 241634Z AUTO 22023G37KT 10SM SCT050 BKN055 BKN065 17/06 A2941 RMK AO2
Loading
Personal Weather Stations






























Interactive Weather Map New forecast layout! Learn more

10-Day Weather Forecast

Advertisements
Track Severe Weather on mobile